Time,TemperatureF,DewpointF,PressureIn,WindDirection,WindDirectionDegrees,WindSpeedMPH,WindSpeedGustMPH,Humidity,HourlyPrecipIn,Conditions,Clouds,dailyrainin,SoftwareType,DateUTC
2013-10-14 00:04:00,63.9,61.5,30.22,NE,35,0.0,0.0,92,0.00,,,0.00,meteobridge,2013-10-14 04:04:00,
2013-10-14 00:09:00,64.0,61.7,30.22,NE,35,0.0,0.0,92,0.00,,,0.00,meteobridge,2013-10-14 04:09:00,
2013-10-14 00:14:00,63.9,61.5,30.22,NE,35,0.0,0.0,92,0.00,,,0.00,meteobridge,2013-10-14 04:14:00,
2013-10-14 00:19:00,63.9,61.5,30.22,NE,35,0.0,0.0,92,0.00,,,0.00,meteobridge,2013-10-14 04:19:00,
2013-10-14 00:24:00,63.9,61.5,30.22,NE,35,0.0,0.0,92,0.00,,,0.00,meteobridge,2013-10-14 04:24:00,
2013-10-14 00:29:00,63.9,61.9,30.22,NE,35,0.0,0.0,93,0.00,,,0.00,meteobridge,2013-10-14 04:29:00,
2013-10-14 00:35:00,63.9,61.9,30.22,NE,35,0.0,0.0,93,0.00,,,0.00,meteobridge,2013-10-14 04:35:00,
2013-10-14 00:40:00,63.9,61.9,30.22,NE,35,0.0,0.0,93,0.00,,,0.00,meteobridge,2013-10-14 04:40:00,
2013-10-14 00:45:00,63.9,61.9,30.22,NE,35,0.0,0.0,93,0.00,,,0.00,meteobridge,2013-10-14 04:45:00,
2013-10-14 00:50:00,63.7,61.7,30.22,NE,35,0.0,0.0,93,0.00,,,0.00,meteobridge,2013-10-14 04:50:00,
2013-10-14 00:55:00,63.7,61.7,30.22,NE,35,0.0,0.0,93,0.00,,,0.00,meteobridge,2013-10-14 04:55:00,
2013-10-14 01:01:00,63.7,61.7,30.22,NE,35,0.0,0.0,93,0.00,,,0.00,meteobridge,2013-10-14 05:01:00,
2013-10-14 01:06:00,63.7,61.7,30.22,NE,35,0.0,0.0,93,0.00,,,0.00,meteobridge,2013-10-14 05:06:00,
2013-10-14 01:11:00,63.7,61.7,30.22,NE,35,0.0,0.0,93,0.00,,,0.00,meteobridge,2013-10-14 05:11:00,
2013-10-14 01:16:00,63.7,61.7,30.22,NE,35,0.0,0.0,93,0.00,,,0.00,meteobridge,2013-10-14 05:16:00,
2013-10-14 01:21:00,63.7,61.7,30.22,NE,35,0.0,0.0,93,0.00,,,0.00,meteobridge,2013-10-14 05:21:00,
2013-10-14 01:26:00,63.7,61.7,30.22,NE,35,0.0,0.0,93,0.00,,,0.00,meteobridge,2013-10-14 05:26:00,
2013-10-14 01:32:00,63.7,61.7,30.22,NE,35,0.0,0.0,93,0.00,,,0.00,meteobridge,2013-10-14 05:32:00,
2013-10-14 01:37:00,63.7,61.7,30.22,NE,35,0.0,0.0,93,0.00,,,0.00,meteobridge,2013-10-14 05:37:00,
2013-10-14 01:42:00,63.7,61.9,30.22,NE,35,0.0,2.0,94,0.00,,,0.00,meteobridge,2013-10-14 05:42:00,
2013-10-14 01:47:00,63.9,62.1,30.22,NE,35,0.0,0.0,94,0.00,,,0.00,meteobridge,2013-10-14 05:47:00,
2013-10-14 01:52:00,63.9,62.1,30.22,NE,35,0.0,2.9,94,0.00,,,0.00,meteobridge,2013-10-14 05:52:00,
2013-10-14 01:57:00,63.9,62.1,30.22,NE,35,2.0,2.0,94,0.00,,,0.00,meteobridge,2013-10-14 05:57:00,
2013-10-14 02:03:00,63.7,61.9,30.22,NE,35,0.0,0.9,94,0.00,,,0.00,meteobridge,2013-10-14 06:03:00,
2013-10-14 02:08:00,63.7,61.9,30.22,NE,35,0.0,0.9,94,0.00,,,0.00,meteobridge,2013-10-14 06:08:00,
2013-10-14 02:13:00,63.7,61.9,30.22,NE,35,0.9,2.0,94,0.00,,,0.00,meteobridge,2013-10-14 06:13:00,
2013-10-14 02:18:00,63.7,61.9,30.23,NE,35,0.0,0.0,94,0.00,,,0.00,meteobridge,2013-10-14 06:18:00,
2013-10-14 02:23:00,63.5,61.7,30.23,NE,35,0.0,2.9,94,0.00,,,0.00,meteobridge,2013-10-14 06:23:00,
2013-10-14 02:28:00,63.5,61.7,30.23,NE,35,0.9,4.9,94,0.00,,,0.00,meteobridge,2013-10-14 06:28:00,
2013-10-14 02:34:00,63.5,61.5,30.23,NE,35,0.0,0.0,93,0.00,,,0.00,meteobridge,2013-10-14 06:34:00,
2013-10-14 02:39:00,63.5,61.5,30.23,NE,35,0.0,0.0,93,0.00,,,0.00,meteobridge,2013-10-14 06:39:00,
2013-10-14 02:44:00,63.5,61.5,30.23,NE,35,0.0,2.9,93,0.00,,,0.00,meteobridge,2013-10-14 06:44:00,
2013-10-14 02:49:00,63.3,61.3,30.22,NE,35,2.0,4.9,93,0.00,,,0.00,meteobridge,2013-10-14 06:49:00,
2013-10-14 02:54:00,63.3,61.3,30.22,NNE,25,0.0,2.0,93,0.00,,,0.00,meteobridge,2013-10-14 06:54:00,
2013-10-14 02:59:00,63.3,61.3,30.22,NNE,25,2.0,2.0,93,0.00,,,0.00,meteobridge,2013-10-14 06:59:00,
2013-10-14 03:04:00,63.3,61.0,30.22,North,10,0.9,2.0,92,0.00,,,0.00,meteobridge,2013-10-14 07:04:00,
2013-10-14 03:09:00,63.3,61.0,30.22,North,10,2.0,2.0,92,0.00,,,0.00,meteobridge,2013-10-14 07:09:00,
2013-10-14 03:14:00,63.3,61.0,30.22,North,10,0.0,0.0,92,0.00,,,0.00,meteobridge,2013-10-14 07:14:00,
2013-10-14 03:19:00,63.3,61.0,30.22,North,10,0.0,0.9,92,0.00,,,0.00,meteobridge,2013-10-14 07:19:00,
2013-10-14 03:24:00,63.3,61.0,30.22,North,10,0.0,2.9,92,0.00,,,0.00,meteobridge,2013-10-14 07:24:00,
2013-10-14 03:29:00,63.3,61.0,30.22,NNE,23,0.0,0.9,92,0.00,,,0.00,meteobridge,2013-10-14 07:29:00,
2013-10-14 03:35:00,63.3,61.0,30.22,NNE,21,0.0,0.9,92,0.00,,,0.00,meteobridge,2013-10-14 07:35:00,
2013-10-14 03:40:00,63.1,60.8,30.22,NNE,21,0.0,0.9,92,0.00,,,0.00,meteobridge,2013-10-14 07:40:00,
2013-10-14 03:45:00,63.1,61.2,30.22,NNE,21,0.0,0.0,93,0.00,,,0.00,meteobridge,2013-10-14 07:45:00,
2013-10-14 03:50:00,63.1,61.2,30.22,NNE,21,0.0,0.0,93,0.00,,,0.00,meteobridge,2013-10-14 07:50:00,
2013-10-14 03:55:00,63.1,61.2,30.22,NNE,21,0.9,0.9,93,0.00,,,0.00,meteobridge,2013-10-14 07:55:00,
2013-10-14 04:00:00,63.1,61.2,30.22,NNE,21,0.9,4.9,93,0.00,,,0.00,meteobridge,2013-10-14 08:00:00,
2013-10-14 04:05:00,63.1,61.2,30.22,NNE,23,0.9,2.0,93,0.00,,,0.00,meteobridge,2013-10-14 08:05:00,
2013-10-14 04:11:00,63.1,61.2,30.22,NNE,23,0.0,0.0,93,0.00,,,0.00,meteobridge,2013-10-14 08:11:00,
2013-10-14 04:16:00,63.1,61.2,30.22,NNE,23,0.0,0.0,93,0.00,,,0.00,meteobridge,2013-10-14 08:16:00,
2013-10-14 04:21:00,63.1,60.8,30.22,NNE,23,2.0,4.9,92,0.00,,,0.00,meteobridge,2013-10-14 08:21:00,
2013-10-14 04:26:00,63.1,60.8,30.22,NNE,23,0.0,0.0,92,0.00,,,0.00,meteobridge,2013-10-14 08:26:00,
2013-10-14 04:31:00,63.1,60.8,30.22,NNE,23,0.0,0.0,92,0.00,,,0.00,meteobridge,2013-10-14 08:31:00,
2013-10-14 04:36:00,63.1,60.4,30.22,NNE,23,0.0,0.0,91,0.00,,,0.00,meteobridge,2013-10-14 08:36:00,
2013-10-14 04:42:00,63.0,60.3,30.22,NNE,23,0.0,0.9,91,0.00,,,0.00,meteobridge,2013-10-14 08:42:00,
2013-10-14 04:47:00,63.0,60.3,30.22,NNE,23,0.0,0.0,91,0.00,,,0.00,meteobridge,2013-10-14 08:47:00,
2013-10-14 04:52:00,63.0,60.3,30.22,NNE,23,0.0,0.9,91,0.00,,,0.00,meteobridge,2013-10-14 08:52:00,
2013-10-14 04:57:00,62.8,60.1,30.22,NNE,23,0.0,2.0,91,0.00,,,0.00,meteobridge,2013-10-14 08:57:00,
2013-10-14 05:02:00,62.8,60.1,30.22,NNE,23,0.9,2.0,91,0.00,,,0.00,meteobridge,2013-10-14 09:02:00,
2013-10-14 05:08:00,62.8,60.1,30.22,NNE,23,0.0,0.0,91,0.00,,,0.00,meteobridge,2013-10-14 09:08:00,
2013-10-14 05:13:00,62.6,59.9,30.22,NNE,23,0.0,0.0,91,0.00,,,0.00,meteobridge,2013-10-14 09:13:00,
2013-10-14 05:18:00,62.6,59.9,30.22,NNE,23,0.0,0.9,91,0.00,,,0.00,meteobridge,2013-10-14 09:18:00,
2013-10-14 05:23:00,62.6,59.9,30.22,NNE,23,0.0,0.9,91,0.00,,,0.00,meteobridge,2013-10-14 09:23:00,
2013-10-14 05:28:00,62.6,59.9,30.22,NNE,23,2.9,4.0,91,0.00,,,0.00,meteobridge,2013-10-14 09:28:00,
2013-10-14 05:33:00,62.6,59.9,30.22,NNE,23,0.0,2.0,91,0.00,,,0.00,meteobridge,2013-10-14 09:33:00,
2013-10-14 05:38:00,62.6,59.9,30.22,NNE,23,0.0,0.0,91,0.00,,,0.00,meteobridge,2013-10-14 09:38:00,
2013-10-14 05:44:00,62.6,59.9,30.22,NNE,23,0.0,0.0,91,0.00,,,0.00,meteobridge,2013-10-14 09:44:00,
2013-10-14 05:49:00,62.6,59.9,30.22,NNE,24,2.9,2.9,91,0.00,,,0.00,meteobridge,2013-10-14 09:49:00,
2013-10-14 05:54:00,62.6,59.9,30.22,NNE,24,0.0,2.0,91,0.00,,,0.00,meteobridge,2013-10-14 09:54:00,
2013-10-14 05:59:00,62.6,59.9,30.22,NNE,24,0.0,0.0,91,0.00,,,0.00,meteobridge,2013-10-14 09:59:00,
2013-10-14 06:04:00,62.6,59.9,30.23,NNE,24,0.0,0.0,91,0.00,,,0.00,meteobridge,2013-10-14 10:04:00,
2013-10-14 06:10:00,62.4,59.7,30.23,NNE,24,0.0,0.0,91,0.00,,,0.00,meteobridge,2013-10-14 10:10:00,
2013-10-14 06:15:00,62.2,59.5,30.23,NNE,21,0.0,2.9,91,0.00,,,0.00,meteobridge,2013-10-14 10:15:00,
2013-10-14 06:20:00,62.1,59.4,30.23,NNW,344,0.0,2.9,91,0.00,,,0.00,meteobridge,2013-10-14 10:20:00,
2013-10-14 06:25:00,61.9,59.2,30.23,North,350,0.0,2.0,91,0.00,,,0.00,meteobridge,2013-10-14 10:25:00,
2013-10-14 06:30:00,61.9,59.2,30.23,North,0,0.0,2.0,91,0.00,,,0.00,meteobridge,2013-10-14 10:30:00,
2013-10-14 06:35:00,61.5,58.8,30.23,North,0,0.0,0.0,91,0.00,,,0.00,meteobridge,2013-10-14 10:35:00,
2013-10-14 06:40:00,61.5,58.8,30.23,WNW,302,0.0,2.0,91,0.00,,,0.00,meteobridge,2013-10-14 10:40:00,
2013-10-14 06:50:00,61.5,58.8,30.24,West,280,0.0,2.9,91,0.00,,,0.00,meteobridge,2013-10-14 10:50:00,
2013-10-14 06:55:00,61.3,58.6,30.24,WNW,292,0.9,2.0,91,0.00,,,0.00,meteobridge,2013-10-14 10:55:00,
2013-10-14 07:00:00,61.2,58.5,30.24,WNW,292,0.0,2.0,91,0.00,,,0.00,meteobridge,2013-10-14 11:00:00,
2013-10-14 07:05:00,61.2,58.5,30.24,WNW,294,0.0,0.0,91,0.00,,,0.00,meteobridge,2013-10-14 11:05:00,
2013-10-14 07:16:00,61.0,58.3,30.24,WNW,289,0.0,0.0,91,0.00,,,0.00,meteobridge,2013-10-14 11:16:00,
2013-10-14 07:21:00,61.0,58.1,30.24,NW,312,0.0,2.0,90,0.00,,,0.00,meteobridge,2013-10-14 11:21:00,
2013-10-14 07:26:00,60.6,57.7,30.24,NW,313,0.0,2.0,90,0.00,,,0.00,meteobridge,2013-10-14 11:26:00,
2013-10-14 07:36:00,60.6,57.4,30.24,North,353,0.0,0.0,89,0.00,,,0.00,meteobridge,2013-10-14 11:36:00,
2013-10-14 07:41:00,60.4,57.2,30.24,West,281,0.9,4.0,89,0.00,,,0.00,meteobridge,2013-10-14 11:41:00,
2013-10-14 07:46:00,60.4,57.2,30.24,NW,315,0.0,0.0,89,0.00,,,0.00,meteobridge,2013-10-14 11:46:00,
2013-10-14 07:51:00,60.4,57.2,30.24,North,356,0.9,2.0,89,0.00,,,0.00,meteobridge,2013-10-14 11:51:00,
2013-10-14 07:56:00,60.4,57.2,30.24,North,7,0.0,0.9,89,0.00,,,0.00,meteobridge,2013-10-14 11:56:00,
2013-10-14 08:01:00,60.4,57.2,30.25,West,281,0.0,2.0,89,0.00,,,0.00,meteobridge,2013-10-14 12:01:00,
2013-10-14 08:11:00,60.3,57.0,30.25,WNW,299,0.0,2.0,89,0.00,,,0.00,meteobridge,2013-10-14 12:11:00,
2013-10-14 08:17:00,60.3,57.0,30.26,NNW,343,0.0,2.9,89,0.00,,,0.00,meteobridge,2013-10-14 12:17:00,
2013-10-14 08:22:00,60.3,57.0,30.26,NNW,343,0.0,0.0,89,0.00,,,0.00,meteobridge,2013-10-14 12:22:00,
2013-10-14 08:27:00,60.3,57.0,30.26,NNE,17,0.0,6.0,89,0.00,,,0.00,meteobridge,2013-10-14 12:27:00,
2013-10-14 08:32:00,60.3,57.0,30.26,NNW,340,0.9,2.9,89,0.00,,,0.00,meteobridge,2013-10-14 12:32:00,
2013-10-14 08:37:00,60.3,57.0,30.26,North,11,2.0,4.0,89,0.00,,,0.00,meteobridge,2013-10-14 12:37:00,
2013-10-14 08:42:00,60.3,57.0,30.26,North,11,2.0,2.9,89,0.00,,,0.00,meteobridge,2013-10-14 12:42:00,
2013-10-14 08:53:00,60.3,57.0,30.26,North,356,0.9,2.0,89,0.00,,,0.00,meteobridge,2013-10-14 12:53:00,
2013-10-14 08:58:00,60.3,57.0,30.26,WNW,301,0.0,6.9,89,0.00,,,0.00,meteobridge,2013-10-14 12:58:00,
2013-10-14 09:03:00,60.3,56.7,30.27,WNW,302,0.9,2.0,88,0.00,,,0.00,meteobridge,2013-10-14 13:03:00,
2013-10-14 09:13:00,60.3,56.7,30.27,NNE,20,2.9,2.9,88,0.00,,,0.00,meteobridge,2013-10-14 13:13:00,
2013-10-14 09:18:00,60.3,56.3,30.27,NNE,20,0.9,2.0,87,0.00,,,0.00,meteobridge,2013-10-14 13:18:00,
2013-10-14 09:23:00,60.4,56.5,30.27,NNE,20,0.0,0.9,87,0.00,,,0.00,meteobridge,2013-10-14 13:23:00,
2013-10-14 09:28:00,60.4,56.5,30.27,NNE,14,0.0,0.0,87,0.00,,,0.00,meteobridge,2013-10-14 13:28:00,
2013-10-14 09:34:00,60.4,56.3,30.27,North,0,0.0,2.9,86,0.00,,,0.00,meteobridge,2013-10-14 13:34:00,
2013-10-14 09:39:00,60.4,56.3,30.27,North,0,0.0,2.9,86,0.00,,,0.00,meteobridge,2013-10-14 13:39:00,
2013-10-14 09:44:00,60.6,56.5,30.27,North,353,0.0,0.0,86,0.00,,,0.00,meteobridge,2013-10-14 13:44:00,
2013-10-14 09:49:00,61.0,56.5,30.27,North,353,2.0,2.0,85,0.00,,,0.00,meteobridge,2013-10-14 13:49:00,
2013-10-14 09:59:00,61.0,56.5,30.27,North,0,0.0,2.0,85,0.00,,,0.00,meteobridge,2013-10-14 13:59:00,
2013-10-14 10:10:00,61.0,56.5,30.27,North,0,0.9,2.0,85,0.00,,,0.00,meteobridge,2013-10-14 14:10:00,
2013-10-14 10:15:00,61.3,56.5,30.27,North,0,0.0,2.0,84,0.00,,,0.00,meteobridge,2013-10-14 14:15:00,
2013-10-14 10:25:00,61.5,56.7,30.27,North,0,0.9,0.9,84,0.00,,,0.00,meteobridge,2013-10-14 14:25:00,
2013-10-14 10:30:00,61.5,56.3,30.27,NE,44,0.0,2.0,83,0.00,,,0.00,meteobridge,2013-10-14 14:30:00,
2013-10-14 10:35:00,61.3,56.1,30.27,NE,44,2.0,2.9,83,0.00,,,0.00,meteobridge,2013-10-14 14:35:00,
2013-10-14 10:45:00,61.5,55.9,30.27,NNE,27,0.0,0.0,82,0.00,,,0.00,meteobridge,2013-10-14 14:45:00,
2013-10-14 10:50:00,61.5,55.9,30.27,NNE,24,0.9,2.9,82,0.00,,,0.00,meteobridge,2013-10-14 14:50:00,
2013-10-14 10:55:00,61.5,55.9,30.27,NNE,21,2.0,2.9,82,0.00,,,0.00,meteobridge,2013-10-14 14:55:00,
2013-10-14 11:00:00,61.9,56.3,30.27,NNE,16,0.9,2.9,82,0.00,,,0.00,meteobridge,2013-10-14 15:00:00,
2013-10-14 11:05:00,61.9,56.3,30.27,NNE,16,0.9,2.9,82,0.00,,,0.00,meteobridge,2013-10-14 15:05:00,
2013-10-14 11:10:00,62.1,56.5,30.27,NNE,16,0.9,0.9,82,0.00,,,0.00,meteobridge,2013-10-14 15:10:00,
2013-10-14 11:15:00,62.1,56.1,30.27,NNE,24,2.9,2.9,81,0.00,,,0.00,meteobridge,2013-10-14 15:15:00,
2013-10-14 11:26:00,62.1,56.1,30.27,NNE,24,0.9,0.9,81,0.00,,,0.00,meteobridge,2013-10-14 15:26:00,
2013-10-14 11:31:00,62.1,56.1,30.26,NNE,18,2.0,2.0,81,0.00,,,0.00,meteobridge,2013-10-14 15:31:00,
2013-10-14 11:36:00,62.1,56.1,30.26,NNE,18,0.0,0.0,81,0.00,,,0.00,meteobridge,2013-10-14 15:36:00,
2013-10-14 11:41:00,62.2,56.3,30.26,NNE,20,0.0,2.0,81,0.00,,,0.00,meteobridge,2013-10-14 15:41:00,
2013-10-14 11:46:00,62.4,56.5,30.26,NNE,20,2.0,2.9,81,0.00,,,0.00,meteobridge,2013-10-14 15:46:00,
2013-10-14 11:51:00,62.6,56.7,30.26,NNE,20,2.0,2.9,81,0.00,,,0.00,meteobridge,2013-10-14 15:51:00,
2013-10-14 11:56:00,62.8,56.8,30.26,NE,34,2.0,2.9,81,0.00,,,0.00,meteobridge,2013-10-14 15:56:00,
2013-10-14 12:01:00,63.1,56.8,30.25,NE,34,0.0,2.9,80,0.00,,,0.00,meteobridge,2013-10-14 16:01:00,
2013-10-14 12:06:00,63.1,56.5,30.25,NNE,24,2.0,4.9,79,0.00,,,0.00,meteobridge,2013-10-14 16:06:00,
2013-10-14 12:11:00,63.3,57.0,30.25,NNE,25,0.9,2.0,80,0.00,,,0.00,meteobridge,2013-10-14 16:11:00,
2013-10-14 12:22:00,63.7,57.0,30.25,NNE,25,2.0,4.0,79,0.00,,,0.00,meteobridge,2013-10-14 16:22:00,
2013-10-14 12:27:00,63.9,57.2,30.25,NNE,25,0.0,0.0,79,0.00,,,0.00,meteobridge,2013-10-14 16:27:00,
2013-10-14 12:32:00,64.0,57.0,30.25,North,354,0.0,2.0,78,0.00,,,0.00,meteobridge,2013-10-14 16:32:00,
2013-10-14 12:37:00,64.2,57.2,30.25,North,4,2.9,4.0,78,0.00,,,0.00,meteobridge,2013-10-14 16:37:00,
2013-10-14 12:43:00,64.2,57.6,30.25,North,6,0.0,0.0,79,0.00,,,0.00,meteobridge,2013-10-14 16:43:00,
2013-10-14 12:53:00,63.9,57.2,30.25,NNE,28,0.0,0.9,79,0.00,,,0.00,meteobridge,2013-10-14 16:53:00,
2013-10-14 12:58:00,63.9,57.6,30.25,NNE,28,0.0,2.0,80,0.00,,,0.00,meteobridge,2013-10-14 16:58:00,
2013-10-14 13:03:00,63.9,57.9,30.25,NE,54,0.0,0.9,81,0.00,,,0.00,meteobridge,2013-10-14 17:03:00,
2013-10-14 13:08:00,63.9,57.6,30.25,ENE,66,2.0,2.9,80,0.00,,,0.00,meteobridge,2013-10-14 17:08:00,
2013-10-14 13:13:00,63.7,57.4,30.25,NNE,28,2.9,4.9,80,0.00,,,0.00,meteobridge,2013-10-14 17:13:00,
2013-10-14 13:19:00,63.9,57.9,30.24,NNE,32,2.0,4.0,81,0.00,,,0.00,meteobridge,2013-10-14 17:19:00,
2013-10-14 13:24:00,64.0,58.1,30.24,NE,34,2.9,2.9,81,0.00,,,0.00,meteobridge,2013-10-14 17:24:00,
2013-10-14 13:34:00,64.0,58.1,30.24,NE,45,0.9,4.9,81,0.00,,,0.00,meteobridge,2013-10-14 17:34:00,
2013-10-14 13:39:00,64.0,58.1,30.23,NE,48,0.9,2.0,81,0.00,,,0.00,meteobridge,2013-10-14 17:39:00,
2013-10-14 13:44:00,64.0,58.1,30.23,NE,47,0.0,0.0,81,0.00,,,0.00,meteobridge,2013-10-14 17:44:00,
2013-10-14 13:59:00,64.6,58.3,30.23,NE,41,0.0,4.0,80,0.00,,,0.00,meteobridge,2013-10-14 17:59:00,
2013-10-14 14:04:00,64.9,58.6,30.22,East,80,0.9,2.9,80,0.00,,,0.00,meteobridge,2013-10-14 18:04:00,
2013-10-14 14:14:00,65.1,58.8,30.21,ENE,64,2.0,4.0,80,0.00,,,0.00,meteobridge,2013-10-14 18:14:00,
2013-10-14 14:19:00,65.1,58.8,30.21,ENE,59,0.0,2.9,80,0.00,,,0.00,meteobridge,2013-10-14 18:19:00,
2013-10-14 14:25:00,65.3,59.0,30.21,NE,52,0.9,2.0,80,0.00,,,0.00,meteobridge,2013-10-14 18:25:00,
2013-10-14 14:30:00,65.5,58.8,30.20,NE,56,0.0,2.0,79,0.00,,,0.00,meteobridge,2013-10-14 18:30:00,
2013-10-14 14:40:00,65.3,58.6,30.20,NE,49,0.0,0.9,79,0.00,,,0.00,meteobridge,2013-10-14 18:40:00,
2013-10-14 14:45:00,65.8,58.8,30.20,NE,49,0.0,2.9,78,0.00,,,0.00,meteobridge,2013-10-14 18:45:00,
2013-10-14 14:50:00,66.0,59.0,30.20,ENE,58,0.0,0.0,78,0.00,,,0.00,meteobridge,2013-10-14 18:50:00,
2013-10-14 14:56:00,66.4,59.4,30.20,ENE,58,0.0,0.0,78,0.00,,,0.00,meteobridge,2013-10-14 18:56:00,
2013-10-14 15:01:00,66.4,59.4,30.20,NE,55,0.9,4.9,78,0.00,,,0.00,meteobridge,2013-10-14 19:01:00,
2013-10-14 15:06:00,66.4,59.0,30.20,NNE,18,2.0,4.9,77,0.00,,,0.00,meteobridge,2013-10-14 19:06:00,
2013-10-14 15:11:00,66.4,59.4,30.20,NNE,13,0.0,0.0,78,0.00,,,0.00,meteobridge,2013-10-14 19:11:00,
2013-10-14 15:16:00,66.6,59.5,30.19,North,356,2.9,2.9,78,0.00,,,0.00,meteobridge,2013-10-14 19:16:00,
2013-10-14 15:26:00,66.7,59.4,30.19,North,8,2.0,6.0,77,0.00,,,0.00,meteobridge,2013-10-14 19:26:00,
2013-10-14 15:31:00,66.4,59.4,30.18,North,11,2.0,4.9,78,0.00,,,0.00,meteobridge,2013-10-14 19:31:00,
2013-10-14 15:36:00,66.4,59.4,30.18,North,8,2.0,4.0,78,0.00,,,0.00,meteobridge,2013-10-14 19:36:00,
2013-10-14 15:41:00,66.4,59.7,30.18,NNE,28,6.0,6.0,79,0.00,,,0.00,meteobridge,2013-10-14 19:41:00,
2013-10-14 15:47:00,66.4,59.7,30.18,NNE,28,2.0,4.9,79,0.00,,,0.00,meteobridge,2013-10-14 19:47:00,
2013-10-14 15:52:00,66.6,59.5,30.18,NNE,27,0.0,2.9,78,0.00,,,0.00,meteobridge,2013-10-14 19:52:00,
2013-10-14 15:57:00,66.7,60.1,30.18,NNE,28,0.0,2.9,79,0.00,,,0.00,meteobridge,2013-10-14 19:57:00,
2013-10-14 16:02:00,66.7,59.7,30.17,NNE,28,0.9,4.9,78,0.00,,,0.00,meteobridge,2013-10-14 20:02:00,
2013-10-14 16:07:00,66.7,60.1,30.17,NNE,27,6.0,6.0,79,0.00,,,0.00,meteobridge,2013-10-14 20:07:00,
2013-10-14 16:12:00,66.6,59.9,30.17,NNE,14,2.9,4.9,79,0.00,,,0.00,meteobridge,2013-10-14 20:12:00,
2013-10-14 16:17:00,66.6,59.9,30.17,ENE,62,0.9,4.9,79,0.00,,,0.00,meteobridge,2013-10-14 20:17:00,
2013-10-14 16:23:00,66.7,60.4,30.17,ENE,62,0.9,2.0,80,0.00,,,0.00,meteobridge,2013-10-14 20:23:00,
2013-10-14 16:28:00,66.9,59.9,30.17,ENE,59,2.9,2.9,78,0.00,,,0.00,meteobridge,2013-10-14 20:28:00,
2013-10-14 16:33:00,66.7,60.1,30.16,NE,37,4.0,6.9,79,0.00,,,0.00,meteobridge,2013-10-14 20:33:00,
2013-10-14 16:38:00,66.4,59.7,30.16,NNE,17,4.9,6.0,79,0.00,,,0.00,meteobridge,2013-10-14 20:38:00,
2013-10-14 16:43:00,66.4,59.7,30.16,NE,38,2.0,4.9,79,0.00,,,0.00,meteobridge,2013-10-14 20:43:00,
2013-10-14 16:48:00,66.4,59.7,30.17,NE,38,2.0,2.0,79,0.00,,,0.00,meteobridge,2013-10-14 20:48:00,
2013-10-14 16:53:00,66.4,60.1,30.17,NE,35,2.0,4.9,80,0.00,,,0.00,meteobridge,2013-10-14 20:53:00,
2013-10-14 16:58:00,66.4,60.1,30.17,NNE,21,2.9,4.0,80,0.00,,,0.00,meteobridge,2013-10-14 20:58:00,
2013-10-14 17:03:00,66.4,59.7,30.17,NNE,30,4.0,6.0,79,0.00,,,0.00,meteobridge,2013-10-14 21:03:00,
2013-10-14 17:08:00,66.4,60.1,30.17,NE,38,0.9,0.9,80,0.00,,,0.00,meteobridge,2013-10-14 21:08:00,
2013-10-14 17:14:00,66.4,60.1,30.17,ENE,64,0.0,2.9,80,0.00,,,0.00,meteobridge,2013-10-14 21:14:00,
2013-10-14 17:19:00,66.0,59.7,30.17,NE,40,2.0,4.9,80,0.00,,,0.00,meteobridge,2013-10-14 21:19:00,
2013-10-14 17:24:00,66.0,59.7,30.17,NE,40,0.0,0.0,80,0.00,,,0.00,meteobridge,2013-10-14 21:24:00,
2013-10-14 17:29:00,65.8,59.5,30.17,NE,40,0.0,0.9,80,0.00,,,0.00,meteobridge,2013-10-14 21:29:00,
2013-10-14 17:34:00,65.8,59.9,30.17,NE,38,0.9,2.9,81,0.00,,,0.00,meteobridge,2013-10-14 21:34:00,
2013-10-14 17:39:00,65.8,59.9,30.17,NE,38,0.0,2.0,81,0.00,,,0.00,meteobridge,2013-10-14 21:39:00,
2013-10-14 17:44:00,66.0,60.1,30.17,NE,38,0.0,2.9,81,0.00,,,0.00,meteobridge,2013-10-14 21:44:00,
2013-10-14 17:49:00,65.8,59.9,30.17,NE,40,0.9,2.0,81,0.00,,,0.00,meteobridge,2013-10-14 21:49:00,
2013-10-14 17:55:00,65.8,59.9,30.17,NE,40,0.0,0.0,81,0.00,,,0.00,meteobridge,2013-10-14 21:55:00,
2013-10-14 18:00:00,65.7,59.7,30.18,NE,40,0.9,4.0,81,0.00,,,0.00,meteobridge,2013-10-14 22:00:00,
2013-10-14 18:05:00,65.7,59.7,30.18,NNE,24,2.0,2.9,81,0.00,,,0.00,meteobridge,2013-10-14 22:05:00,
2013-10-14 18:10:00,65.5,59.9,30.18,NNE,24,0.9,2.0,82,0.00,,,0.00,meteobridge,2013-10-14 22:10:00,
2013-10-14 18:15:00,65.5,59.9,30.18,NNE,25,0.9,2.9,82,0.00,,,0.00,meteobridge,2013-10-14 22:15:00,
2013-10-14 18:20:00,65.3,59.7,30.18,NNE,25,2.0,2.9,82,0.00,,,0.00,meteobridge,2013-10-14 22:20:00,
2013-10-14 18:25:00,65.3,59.7,30.18,NNE,28,0.9,2.9,82,0.00,,,0.00,meteobridge,2013-10-14 22:25:00,
2013-10-14 18:30:00,65.1,59.9,30.18,NNE,21,2.0,6.0,83,0.00,,,0.00,meteobridge,2013-10-14 22:30:00,
2013-10-14 18:35:00,64.9,59.7,30.18,NE,38,0.9,4.0,83,0.00,,,0.00,meteobridge,2013-10-14 22:35:00,
2013-10-14 18:40:00,64.8,59.5,30.18,NE,51,0.0,2.9,83,0.00,,,0.00,meteobridge,2013-10-14 22:40:00,
2013-10-14 18:45:00,64.8,59.5,30.18,NE,37,0.0,0.9,83,0.00,,,0.00,meteobridge,2013-10-14 22:45:00,
2013-10-14 18:51:00,64.8,59.9,30.18,NE,37,0.0,0.9,84,0.00,,,0.00,meteobridge,2013-10-14 22:51:00,
2013-10-14 18:56:00,64.8,59.9,30.18,NE,37,0.0,0.9,84,0.00,,,0.00,meteobridge,2013-10-14 22:56:00,
2013-10-14 19:01:00,64.8,59.9,30.18,NE,37,0.0,2.0,84,0.00,,,0.00,meteobridge,2013-10-14 23:01:00,
2013-10-14 19:07:00,64.8,59.9,30.18,NE,37,4.9,4.9,84,0.00,,,0.00,meteobridge,2013-10-14 23:07:00,
2013-10-14 19:12:00,64.6,59.7,30.18,NE,38,0.0,0.9,84,0.00,,,0.00,meteobridge,2013-10-14 23:12:00,
2013-10-14 19:17:00,64.6,59.9,30.19,ENE,58,2.9,2.9,85,0.00,,,0.00,meteobridge,2013-10-14 23:17:00,
2013-10-14 19:22:00,64.2,59.5,30.19,NE,55,0.0,0.9,85,0.00,,,0.00,meteobridge,2013-10-14 23:22:00,
2013-10-14 19:27:00,64.2,59.5,30.19,NE,55,0.9,2.0,85,0.00,,,0.00,meteobridge,2013-10-14 23:27:00,
2013-10-14 19:32:00,64.2,59.5,30.19,NE,55,0.0,0.0,85,0.00,,,0.00,meteobridge,2013-10-14 23:32:00,
2013-10-14 19:37:00,64.2,59.5,30.19,NE,54,0.9,4.0,85,0.00,,,0.00,meteobridge,2013-10-14 23:37:00,
2013-10-14 19:42:00,64.2,59.5,30.19,NE,54,2.0,2.0,85,0.00,,,0.00,meteobridge,2013-10-14 23:42:00,
2013-10-14 19:48:00,64.2,59.5,30.19,NE,54,0.0,0.9,85,0.00,,,0.00,meteobridge,2013-10-14 23:48:00,
2013-10-14 19:53:00,64.2,59.5,30.19,NE,54,0.9,2.0,85,0.00,,,0.00,meteobridge,2013-10-14 23:53:00,
2013-10-14 19:58:00,64.2,59.5,30.19,NE,54,0.0,0.0,85,0.00,,,0.00,meteobridge,2013-10-14 23:58:00,
2013-10-14 20:03:00,64.2,59.9,30.19,NE,54,0.0,2.0,86,0.00,,,0.00,meteobridge,2013-10-15 00:03:00,
2013-10-14 20:08:00,64.2,59.9,30.19,NE,54,0.0,0.0,86,0.00,,,0.00,meteobridge,2013-10-15 00:08:00,
2013-10-14 20:13:00,64.2,59.9,30.19,NE,55,0.0,0.0,86,0.00,,,0.00,meteobridge,2013-10-15 00:13:00,
2013-10-14 20:19:00,64.2,59.9,30.19,NE,55,0.0,0.0,86,0.00,,,0.00,meteobridge,2013-10-15 00:19:00,
2013-10-14 20:24:00,64.0,59.7,30.19,NE,55,0.0,0.0,86,0.00,,,0.00,meteobridge,2013-10-15 00:24:00,
2013-10-14 20:29:00,64.0,59.7,30.19,ENE,58,0.0,2.0,86,0.00,,,0.00,meteobridge,2013-10-15 00:29:00,
2013-10-14 20:34:00,64.0,60.1,30.19,ENE,58,0.0,0.0,87,0.00,,,0.00,meteobridge,2013-10-15 00:34:00,
2013-10-14 20:39:00,63.9,59.9,30.19,ENE,58,0.0,0.0,87,0.00,,,0.00,meteobridge,2013-10-15 00:39:00,
2013-10-14 20:44:00,63.9,59.9,30.19,ENE,58,0.0,0.0,87,0.00,,,0.00,meteobridge,2013-10-15 00:44:00,
2013-10-14 20:50:00,63.9,59.9,30.19,ENE,58,0.0,0.0,87,0.00,,,0.00,meteobridge,2013-10-15 00:50:00,
2013-10-14 20:55:00,63.9,59.9,30.19,ENE,58,0.0,0.0,87,0.00,,,0.00,meteobridge,2013-10-15 00:55:00,
2013-10-14 21:00:00,63.9,59.9,30.18,ENE,58,0.0,0.0,87,0.00,,,0.00,meteobridge,2013-10-15 01:00:00,
2013-10-14 21:05:00,63.7,59.7,30.18,ENE,58,0.0,0.0,87,0.00,,,0.00,meteobridge,2013-10-15 01:05:00,
2013-10-14 21:10:00,63.7,59.7,30.18,ENE,58,0.0,0.0,87,0.00,,,0.00,meteobridge,2013-10-15 01:10:00,
2013-10-14 21:16:00,63.7,59.7,30.19,ENE,58,0.0,0.0,87,0.00,,,0.00,meteobridge,2013-10-15 01:16:00,
2013-10-14 21:21:00,63.7,60.1,30.19,ENE,58,0.0,0.9,88,0.00,,,0.00,meteobridge,2013-10-15 01:21:00,
2013-10-14 21:26:00,63.7,59.7,30.19,ENE,58,0.0,0.0,87,0.00,,,0.00,meteobridge,2013-10-15 01:26:00,
2013-10-14 21:31:00,63.5,59.9,30.19,ENE,58,0.0,0.0,88,0.00,,,0.00,meteobridge,2013-10-15 01:31:00,
2013-10-14 21:37:00,63.5,59.9,30.19,ENE,58,0.0,0.0,88,0.00,,,0.00,meteobridge,2013-10-15 01:37:00,
2013-10-14 21:42:00,63.3,59.7,30.19,ENE,58,0.0,0.0,88,0.00,,,0.00,meteobridge,2013-10-15 01:42:00,
2013-10-14 21:47:00,63.3,59.7,30.18,ENE,58,0.0,0.0,88,0.00,,,0.00,meteobridge,2013-10-15 01:47:00,
2013-10-14 21:52:00,63.3,59.7,30.18,ENE,58,0.0,0.0,88,0.00,,,0.00,meteobridge,2013-10-15 01:52:00,
2013-10-14 21:57:00,63.3,59.7,30.18,ENE,58,0.0,0.0,88,0.00,,,0.00,meteobridge,2013-10-15 01:57:00,
2013-10-14 22:02:00,63.3,60.1,30.18,ENE,58,0.0,0.0,89,0.00,,,0.00,meteobridge,2013-10-15 02:02:00,
2013-10-14 22:08:00,63.1,59.9,30.18,ENE,58,0.0,0.0,89,0.00,,,0.00,meteobridge,2013-10-15 02:08:00,
2013-10-14 22:13:00,63.1,59.9,30.18,ENE,58,0.0,0.0,89,0.00,,,0.00,meteobridge,2013-10-15 02:13:00,
2013-10-14 22:18:00,63.1,59.9,30.17,ENE,58,0.0,0.0,89,0.00,,,0.00,meteobridge,2013-10-15 02:18:00,
2013-10-14 22:23:00,63.1,59.9,30.17,ENE,58,0.0,0.9,89,0.00,,,0.00,meteobridge,2013-10-15 02:23:00,
2013-10-14 22:28:00,63.0,59.7,30.17,ENE,58,0.0,0.0,89,0.00,,,0.00,meteobridge,2013-10-15 02:28:00,
2013-10-14 22:33:00,62.8,59.7,30.17,ENE,58,0.0,0.0,90,0.00,,,0.00,meteobridge,2013-10-15 02:33:00,
2013-10-14 22:38:00,62.8,59.7,30.17,ENE,58,0.0,0.9,90,0.00,,,0.00,meteobridge,2013-10-15 02:38:00,
2013-10-14 22:44:00,62.6,59.5,30.17,ENE,58,0.0,0.0,90,0.00,,,0.00,meteobridge,2013-10-15 02:44:00,
2013-10-14 22:49:00,62.4,59.4,30.17,ENE,58,0.0,0.0,90,0.00,,,0.00,meteobridge,2013-10-15 02:49:00,
2013-10-14 22:54:00,62.4,59.7,30.17,ENE,58,0.0,0.0,91,0.00,,,0.00,meteobridge,2013-10-15 02:54:00,
2013-10-14 22:59:00,62.2,59.5,30.18,ENE,58,0.0,0.0,91,0.00,,,0.00,meteobridge,2013-10-15 02:59:00,
2013-10-14 23:05:00,62.1,59.4,30.18,ENE,58,0.0,0.0,91,0.00,,,0.00,meteobridge,2013-10-15 03:05:00,
2013-10-14 23:10:00,62.1,59.4,30.18,ENE,58,0.0,0.0,91,0.00,,,0.00,meteobridge,2013-10-15 03:10:00,
2013-10-14 23:15:00,62.1,59.4,30.18,ENE,58,0.0,0.0,91,0.00,,,0.00,meteobridge,2013-10-15 03:15:00,
2013-10-14 23:20:00,62.1,59.7,30.18,ENE,58,0.0,0.0,92,0.00,,,0.00,meteobridge,2013-10-15 03:20:00,
2013-10-14 23:25:00,62.1,59.7,30.18,ENE,58,0.0,0.0,92,0.00,,,0.00,meteobridge,2013-10-15 03:25:00,
2013-10-14 23:35:00,62.1,59.7,30.17,ENE,58,0.0,0.0,92,0.00,,,0.00,meteobridge,2013-10-15 03:35:00,
2013-10-14 23:40:00,62.1,60.1,30.17,ENE,58,0.0,0.0,93,0.00,,,0.00,meteobridge,2013-10-15 03:40:00,
2013-10-14 23:45:00,62.1,60.1,30.17,ENE,58,0.0,0.0,93,0.00,,,0.00,meteobridge,2013-10-15 03:45:00,
2013-10-14 23:51:00,62.2,60.3,30.17,ENE,58,0.0,0.0,93,0.00,,,0.00,meteobridge,2013-10-15 03:51:00,
2013-10-14 23:56:00,62.2,60.3,30.17,ENE,58,0.0,0.9,93,0.00,,,0.00,meteobridge,2013-10-15 03:56:00,